Terminal Aerodrome Forecast
Issued by NWS

Home | Current Version | Previous Version | Text Only | Print | Product List | Glossary Off
Versions: 1 2 3 4 5 6 7 8 9 10 11 12 13 14 15 16 17 18 19 20

000
FTUS42 KMHX 191100
TAFISO
TAF
KISO 191120Z 1912/2012 06003KT P6SM BKN200
     FM191500 08010G15KT P6SM SCT050
     FM200000 05005KT P6SM BKN250
     FM200900 00000KT 3SM BR BKN250
      AMD LTD TO CLD VIS AND WIND=

USA.gov is the U.S. government's official web portal to all federal, state and local government web resources and services.